Rechercher aéroport 
image banner adimage banner adimage banner ad
image banner ad

N13 - Bloomsburg Muni

Situé à Bloomsburg, United States

ICAO - N13, IATA -

Données fournies par Airmate  

Information générale

Coordonnées: N40°59'52" W76°26'7"
Élévation : 481 feet MSL.
Variation magnétique : -12° East
Voir autres Aéroports à Pennsylvania

Données opérationnelles

Special qualification required
Heure actuelle UTC:
Heure actuelle locale:
Météo à : KHZL - Hazleton Rgnl ( 37 km )
METAR: KHZL 152235Z AUTO 31004KT 10SM SCT039 SCT060 SCT100 19/11 A2986 RMK AO2
Voir NOTAMs / SUP AIP / TFR affectant cet aéroport [VIEW]
Fréquences de communication: [VIEW]

Pistes:

Identifiant RWYQFULongueur (ft)Largeur (ft)SurfaceLDA (ft)
0977°320060ASPH
27257°320060ASPH

Coordonnées de l'aéroport

Adresse: Bloomsburg United States

Vue satellite de N13